Time;durP1;ratioP1;P1;durP2;ratioP2;P2;SDS_P1;SDS_P2;PMS_P1;PMS_P2;Temp;Humidity;BMP_temperature;BMP_pressure;BME280_temperature;BME280_humidity;BME280_pressure;Samples;Min_cycle;Max_cycle;Signal;HPM_P1;HPM_P2
2022/05/18 00:01:39;;;;;;;0.00;0.00;;;17.30;99.90;;;;;;5053784;28;20041;-78
2022/05/18 00:04:05;;;;;;;0.00;0.00;;;17.30;99.90;;;;;;5053857;28;20044;-78
2022/05/18 00:06:31;;;;;;;0.00;0.00;;;17.30;99.90;;;;;;5053694;28;20171;-78
2022/05/18 00:08:57;;;;;;;0.00;0.00;;;17.30;99.90;;;;;;5037378;28;20099;-78
2022/05/18 00:11:23;;;;;;;0.00;0.00;;;17.30;99.90;;;;;;5053581;28;20056;-77
2022/05/18 00:13:51;;;;;;;0.00;0.00;;;17.30;99.90;;;;;;5036692;28;20048;-78
2022/05/18 00:16:19;;;;;;;0.00;0.00;;;17.30;99.90;;;;;;5053511;28;20448;-77
2022/05/18 00:18:45;;;;;;;0.00;0.00;;;17.20;99.90;;;;;;5053559;28;20048;-78
2022/05/18 00:21:12;;;;;;;0.00;0.00;;;17.20;99.90;;;;;;5036709;28;20064;-78
2022/05/18 00:23:38;;;;;;;0.22;0.05;;;17.20;99.90;;;;;;5036528;28;20443;-78
2022/05/18 00:26:05;;;;;;;0.00;0.00;;;17.10;99.90;;;;;;5036740;28;20110;-77
2022/05/18 00:28:31;;;;;;;0.00;0.00;;;17.20;99.90;;;;;;5036391;28;20404;-78
2022/05/18 00:30:57;;;;;;;0.00;0.00;;;17.10;99.90;;;;;;5053214;28;20041;-78
2022/05/18 00:33:23;;;;;;;0.63;0.30;;;17.10;99.90;;;;;;5053243;28;20080;-78
2022/05/18 00:35:49;;;;;;;0.10;0.08;;;17.10;99.90;;;;;;5036539;28;20084;-78
2022/05/18 00:38:15;;;;;;;0.15;0.15;;;17.00;99.90;;;;;;5053118;28;20088;-78
2022/05/18 00:40:46;;;;;;;0.00;0.00;;;17.00;99.90;;;;;;5052822;28;20080;-77
2022/05/18 00:43:34;;;;;;;0.00;0.00;;;17.00;99.90;;;;;;5053096;28;20041;-77
2022/05/18 00:46:03;;;;;;;0.00;0.00;;;16.90;99.90;;;;;;5052748;28;20500;-78
2022/05/18 00:48:29;;;;;;;0.13;0.13;;;16.90;99.90;;;;;;5052354;28;20107;-78
2022/05/18 00:50:58;;;;;;;0.00;0.00;;;16.80;99.90;;;;;;5052959;28;20053;-78
2022/05/18 00:53:37;;;;;;;0.00;0.00;;;16.90;99.90;;;;;;5053006;28;20064;-77
2022/05/18 00:56:08;;;;;;;1.45;0.20;;;16.90;99.90;;;;;;5036663;28;20097;-77
2022/05/18 00:58:57;;;;;;;2.80;0.43;;;16.80;99.90;;;;;;5036344;28;20045;-78
2022/05/18 01:01:24;;;;;;;3.53;0.43;;;16.80;99.90;;;;;;5052698;28;20106;-77
2022/05/18 01:03:52;;;;;;;0.00;0.00;;;16.80;99.90;;;;;;5052761;28;20052;-77
2022/05/18 01:06:43;;;;;;;0.10;0.10;;;16.80;99.90;;;;;;5052089;28;20091;-77
2022/05/18 01:09:20;;;;;;;0.00;0.00;;;16.70;99.90;;;;;;5035833;28;20146;-77
2022/05/18 01:11:46;;;;;;;0.00;0.00;;;16.70;99.90;;;;;;5052437;28;20558;-77
2022/05/18 01:14:24;;;;;;;2.50;0.55;;;16.70;99.90;;;;;;5036122;28;20045;-77
2022/05/18 01:16:51;;;;;;;0.00;0.00;;;16.70;99.90;;;;;;5052458;28;20097;-77
2022/05/18 01:19:40;;;;;;;0.00;0.00;;;16.70;99.90;;;;;;5036145;28;20068;-77
2022/05/18 01:22:15;;;;;;;0.00;0.00;;;16.70;99.90;;;;;;5052341;28;20389;-77
2022/05/18 01:25:13;;;;;;;0.10;0.10;;;16.70;99.90;;;;;;5052507;28;20095;-77
2022/05/18 01:27:39;;;;;;;0.00;0.00;;;16.70;99.90;;;;;;5052475;28;20500;-78
2022/05/18 01:30:07;;;;;;;0.00;0.00;;;16.60;99.90;;;;;;5036093;28;20053;-77
2022/05/18 01:32:40;;;;;;;3.10;0.28;;;16.70;99.90;;;;;;5035536;28;20409;-77
2022/05/18 01:35:08;;;;;;;0.13;0.13;;;16.60;99.90;;;;;;5035901;28;20059;-77
2022/05/18 01:37:34;;;;;;;0.00;0.00;;;16.60;99.90;;;;;;5035972;28;20075;-77
2022/05/18 01:40:03;;;;;;;0.10;0.00;;;16.50;99.90;;;;;;5052396;28;20037;-77
2022/05/18 01:43:00;;;;;;;0.00;0.00;;;16.60;99.90;;;;;;5052645;28;20385;-77
2022/05/18 01:45:26;;;;;;;0.00;0.00;;;16.60;99.90;;;;;;5014843;28;20056;-77
2022/05/18 01:47:52;;;;;;;0.08;0.08;;;16.50;99.90;;;;;;5014984;28;20057;-77
2022/05/18 01:50:27;;;;;;;0.00;0.00;;;16.50;99.90;;;;;;4999084;28;20133;-77
2022/05/18 01:52:52;;;;;;;0.80;0.30;;;16.50;99.90;;;;;;5014886;28;20056;-77
2022/05/18 01:55:18;;;;;;;0.10;0.10;;;16.40;99.90;;;;;;5015045;28;20054;-78
2022/05/18 01:57:44;;;;;;;0.30;0.10;;;16.40;99.90;;;;;;5015474;28;20108;-77
2022/05/18 02:00:11;;;;;;;0.00;0.00;;;16.40;99.90;;;;;;4998677;28;20053;-78
2022/05/18 02:02:38;;;;;;;0.00;0.00;;;16.40;99.90;;;;;;4998394;28;20114;-78
2022/05/18 02:05:04;;;;;;;0.03;0.03;;;16.40;99.90;;;;;;4998844;28;20073;-78
2022/05/18 02:07:30;;;;;;;0.00;0.00;;;16.40;99.90;;;;;;4998108;28;20497;-78
2022/05/18 02:09:56;;;;;;;0.00;0.00;;;16.30;99.90;;;;;;4998512;28;20057;-77
2022/05/18 02:12:22;;;;;;;0.00;0.00;;;16.30;99.90;;;;;;5013905;28;20054;-77
2022/05/18 02:14:48;;;;;;;0.03;0.00;;;16.30;99.90;;;;;;4997535;28;20509;-77
2022/05/18 02:17:13;;;;;;;0.00;0.00;;;16.20;99.90;;;;;;4998986;28;20047;-78
2022/05/18 02:19:39;;;;;;;0.03;0.03;;;16.10;99.90;;;;;;5018414;28;20045;-78
2022/05/18 02:22:05;;;;;;;0.00;0.00;;;16.10;99.90;;;;;;5040199;28;20106;-77
2022/05/18 02:24:30;;;;;;;0.00;0.00;;;16.10;99.90;;;;;;5055732;28;20111;-77
2022/05/18 02:26:56;;;;;;;0.03;0.03;;;16.10;99.90;;;;;;5055483;28;20040;-78
2022/05/18 02:29:22;;;;;;;0.00;0.00;;;16.00;99.90;;;;;;5055587;28;20132;-78
2022/05/18 02:31:47;;;;;;;0.00;0.00;;;16.00;99.90;;;;;;5056003;28;20041;-78
2022/05/18 02:34:13;;;;;;;0.00;0.00;;;15.90;99.90;;;;;;5038879;28;20377;-78
2022/05/18 02:36:39;;;;;;;0.00;0.00;;;16.00;99.90;;;;;;5055457;28;20045;-78
2022/05/18 02:39:05;;;;;;;0.00;0.00;;;15.90;99.90;;;;;;5055889;28;20393;-78
2022/05/18 02:41:30;;;;;;;0.00;0.00;;;15.90;99.90;;;;;;5038704;28;20049;-78
2022/05/18 02:43:58;;;;;;;0.00;0.00;;;15.90;99.90;;;;;;5055443;28;20049;-78
2022/05/18 02:46:23;;;;;;;0.10;0.10;;;15.80;99.90;;;;;;5055195;28;20500;-78
2022/05/18 02:48:52;;;;;;;0.10;0.00;;;15.80;99.90;;;;;;5054828;28;20061;-78
2022/05/18 02:51:19;;;;;;;0.65;0.10;;;15.70;99.90;;;;;;5038386;28;20394;-78
2022/05/18 02:53:45;;;;;;;0.05;0.00;;;15.70;99.90;;;;;;5038327;28;20072;-78
2022/05/18 02:56:14;;;;;;;0.00;0.00;;;15.60;99.90;;;;;;5038703;28;20049;-78
2022/05/18 02:58:48;;;;;;;0.00;0.00;;;15.60;99.90;;;;;;5055191;28;20095;-78
2022/05/18 03:01:20;;;;;;;2.00;0.15;;;15.60;99.90;;;;;;5038555;28;20504;-78
2022/05/18 03:03:46;;;;;;;0.38;0.15;;;15.50;99.90;;;;;;5054991;28;20128;-78
2022/05/18 03:06:14;;;;;;;0.15;0.00;;;15.50;99.90;;;;;;5054758;28;20136;-78
2022/05/18 03:08:42;;;;;;;0.03;0.00;;;15.40;99.90;;;;;;5037991;28;20136;-78
2022/05/18 03:11:09;;;;;;;0.00;0.00;;;15.40;99.90;;;;;;5037726;28;20064;-78
2022/05/18 03:13:35;;;;;;;0.00;0.00;;;15.30;99.90;;;;;;5053930;28;20041;-78
2022/05/18 03:16:01;;;;;;;0.00;0.00;;;15.30;99.90;;;;;;5035797;28;20057;-78
2022/05/18 03:18:27;;;;;;;0.45;0.40;;;15.30;99.90;;;;;;5053769;28;20090;-78
2022/05/18 03:23:38;;;;;;;0.00;0.00;;;15.20;99.90;;;;;;5054819;28;20041;-78
2022/05/18 03:26:05;;;;;;;0.00;0.00;;;15.20;99.90;;;;;;5054497;28;20049;-78
2022/05/18 03:28:31;;;;;;;0.00;0.00;;;15.10;99.90;;;;;;5053944;28;20044;-78
2022/05/18 03:30:57;;;;;;;0.00;0.00;;;15.10;99.90;;;;;;5037394;28;20049;-78
2022/05/18 03:33:23;;;;;;;0.00;0.00;;;15.00;99.90;;;;;;5054240;28;20037;-78
2022/05/18 03:35:49;;;;;;;0.05;0.05;;;15.00;99.90;;;;;;5054280;28;20045;-78
2022/05/18 03:38:16;;;;;;;0.00;0.00;;;15.00;99.90;;;;;;5054443;28;20049;-77
2022/05/18 03:40:42;;;;;;;0.00;0.00;;;15.00;99.90;;;;;;5054378;28;20056;-78
2022/05/18 03:43:08;;;;;;;0.00;0.00;;;15.00;99.90;;;;;;5037435;28;20385;-78
2022/05/18 03:45:33;;;;;;;0.00;0.00;;;15.00;99.90;;;;;;5054324;28;20131;-78
2022/05/18 03:47:59;;;;;;;0.00;0.00;;;14.90;99.90;;;;;;5053690;28;20493;-78
2022/05/18 03:50:28;;;;;;;0.00;0.00;;;14.90;99.90;;;;;;5053990;28;20055;-78
2022/05/18 03:52:54;;;;;;;0.00;0.00;;;14.90;99.90;;;;;;5037264;28;20052;-78
2022/05/18 03:55:20;;;;;;;0.00;0.00;;;14.90;99.90;;;;;;5053932;28;20064;-77
2022/05/18 03:57:46;;;;;;;0.00;0.00;;;14.80;99.90;;;;;;5054147;28;20046;-78
2022/05/18 04:00:12;;;;;;;0.93;0.30;;;14.90;99.90;;;;;;5037155;28;20057;-78
2022/05/18 04:02:40;;;;;;;0.00;0.00;;;14.80;99.90;;;;;;5036508;28;20049;-77
2022/05/18 04:05:07;;;;;;;0.00;0.00;;;14.80;99.90;;;;;;5052744;28;20509;-77
2022/05/18 04:07:33;;;;;;;0.00;0.00;;;14.80;99.90;;;;;;5037528;28;20056;-77
2022/05/18 04:09:59;;;;;;;0.00;0.00;;;14.80;99.90;;;;;;5053657;28;20547;-78
2022/05/18 04:12:27;;;;;;;0.03;0.00;;;14.80;99.90;;;;;;5037255;28;20140;-78
2022/05/18 04:14:54;;;;;;;0.00;0.00;;;14.70;99.90;;;;;;5037216;28;20061;-78
2022/05/18 04:17:22;;;;;;;0.00;0.00;;;14.70;99.90;;;;;;5053514;28;20052;-79
2022/05/18 04:19:48;;;;;;;0.00;0.00;;;14.80;99.90;;;;;;5053350;28;20485;-79
2022/05/18 04:22:14;;;;;;;0.00;0.00;;;14.80;99.90;;;;;;5036763;28;20045;-77
2022/05/18 04:24:40;;;;;;;0.00;0.00;;;14.70;99.90;;;;;;5036981;28;20527;-77
2022/05/18 04:27:06;;;;;;;0.20;0.10;;;14.80;99.90;;;;;;5053264;28;20041;-77
2022/05/18 04:29:32;;;;;;;0.10;0.10;;;14.80;99.90;;;;;;5036685;28;20067;-77
2022/05/18 04:31:58;;;;;;;0.03;0.03;;;14.80;99.90;;;;;;5052998;28;20091;-77
2022/05/18 04:34:25;;;;;;;0.00;0.00;;;14.80;99.90;;;;;;5053032;28;20513;-77
2022/05/18 04:36:51;;;;;;;0.00;0.00;;;14.80;99.90;;;;;;5055462;28;20056;-77
2022/05/18 04:39:17;;;;;;;0.00;0.00;;;14.80;99.90;;;;;;5072286;28;20051;-77
2022/05/18 04:41:43;;;;;;;0.00;0.00;;;14.80;99.90;;;;;;5055460;28;20045;-78
2022/05/18 04:44:08;;;;;;;0.00;0.00;;;14.80;99.90;;;;;;5052804;28;20175;-77
2022/05/18 04:46:34;;;;;;;0.30;0.25;;;14.90;99.90;;;;;;5036900;28;20057;-76
2022/05/18 04:49:00;;;;;;;0.00;0.00;;;14.90;99.90;;;;;;5035736;28;20132;-77
2022/05/18 04:51:26;;;;;;;1.13;0.30;;;14.90;99.90;;;;;;5036114;28;20124;-76
2022/05/18 04:53:52;;;;;;;0.17;0.17;;;14.90;99.90;;;;;;5052919;28;20456;-76
2022/05/18 04:56:18;;;;;;;0.00;0.00;;;15.00;99.90;;;;;;5036468;28;20053;-78
2022/05/18 04:58:43;;;;;;;0.00;0.00;;;15.10;99.90;;;;;;5052669;28;20060;-77
2022/05/18 05:01:10;;;;;;;0.03;0.03;;;15.20;99.90;;;;;;5052823;28;20037;-77
2022/05/18 05:03:36;;;;;;;0.35;0.03;;;15.30;99.90;;;;;;5052744;28;20122;-77
2022/05/18 05:06:03;;;;;;;0.00;0.00;;;15.30;99.90;;;;;;5052611;28;20477;-77
2022/05/18 05:08:30;;;;;;;0.00;0.00;;;15.30;99.90;;;;;;5052805;28;20041;-77
2022/05/18 05:10:56;;;;;;;0.00;0.00;;;15.40;99.90;;;;;;5052698;28;20048;-77
2022/05/18 05:13:23;;;;;;;0.00;0.00;;;15.50;99.90;;;;;;5052605;28;20048;-76
2022/05/18 05:15:51;;;;;;;0.00;0.00;;;15.60;99.90;;;;;;5052637;28;20041;-77
2022/05/18 05:18:17;;;;;;;0.00;0.00;;;15.60;99.90;;;;;;5052601;28;20052;-77
2022/05/18 05:20:43;;;;;;;0.00;0.00;;;15.70;99.90;;;;;;5052594;28;20188;-77
2022/05/18 05:23:09;;;;;;;0.20;0.20;;;15.80;99.90;;;;;;5052838;28;20489;-77
2022/05/18 05:25:34;;;;;;;0.00;0.00;;;15.90;99.90;;;;;;5052632;28;20095;-77
2022/05/18 05:28:00;;;;;;;0.00;0.00;;;16.00;99.90;;;;;;5052341;28;20133;-77
2022/05/18 05:30:27;;;;;;;0.00;0.00;;;16.00;99.90;;;;;;5052507;28;20122;-78
2022/05/18 05:32:53;;;;;;;0.75;0.47;;;16.10;99.90;;;;;;5036261;28;20051;-77
2022/05/18 05:35:19;;;;;;;0.03;0.03;;;16.40;99.90;;;;;;5052403;28;20098;-77
2022/05/18 05:37:44;;;;;;;0.00;0.00;;;17.00;99.90;;;;;;5036045;28;20049;-77
2022/05/18 05:40:11;;;;;;;0.00;0.00;;;17.50;99.90;;;;;;5035832;28;20041;-77
2022/05/18 05:42:37;;;;;;;0.00;0.00;;;17.70;99.90;;;;;;5052296;28;20107;-77
2022/05/18 05:45:04;;;;;;;0.47;0.32;;;17.80;99.90;;;;;;5035674;28;20136;-77
2022/05/18 05:47:30;;;;;;;0.00;0.00;;;17.80;99.90;;;;;;5052561;28;20064;-77
2022/05/18 05:49:56;;;;;;;0.00;0.00;;;17.80;99.90;;;;;;5052292;28;20057;-77
2022/05/18 05:52:21;;;;;;;0.10;0.10;;;17.70;99.90;;;;;;5053144;28;20477;-77
2022/05/18 05:54:47;;;;;;;0.15;0.15;;;17.80;99.90;;;;;;5056277;28;20049;-77
2022/05/18 05:57:13;;;;;;;0.20;0.10;;;17.80;99.90;;;;;;5039431;28;20045;-78
2022/05/18 05:59:39;;;;;;;0.10;0.00;;;17.70;99.90;;;;;;5039829;28;20110;-77
2022/05/18 06:02:11;;;;;;;0.00;0.00;;;17.80;99.90;;;;;;5056656;28;20041;-77
2022/05/18 06:04:38;;;;;;;0.00;0.00;;;17.90;99.90;;;;;;5039438;28;20493;-77
2022/05/18 06:07:04;;;;;;;11.93;0.90;;;17.90;99.90;;;;;;5055885;28;20507;-78
2022/05/18 06:09:30;;;;;;;0.08;0.08;;;18.00;99.90;;;;;;5039163;28;20497;-77
2022/05/18 06:11:55;;;;;;;0.00;0.00;;;18.00;99.90;;;;;;5056420;28;20138;-77
2022/05/18 06:14:21;;;;;;;0.00;0.00;;;18.10;99.90;;;;;;5040013;28;20393;-77
2022/05/18 06:16:47;;;;;;;0.17;0.17;;;18.20;99.90;;;;;;5039495;28;20523;-77
2022/05/18 06:19:14;;;;;;;0.10;0.10;;;18.30;99.90;;;;;;5056307;28;20503;-78
2022/05/18 06:21:40;;;;;;;0.00;0.00;;;18.40;99.90;;;;;;5039195;28;20149;-77
2022/05/18 06:24:06;;;;;;;0.75;0.20;;;18.40;99.90;;;;;;5055853;28;20052;-77
2022/05/18 06:26:32;;;;;;;0.00;0.00;;;18.50;99.90;;;;;;5055644;28;20056;-77
2022/05/18 06:28:58;;;;;;;0.10;0.10;;;18.60;99.90;;;;;;5055501;28;20095;-78
2022/05/18 06:31:23;;;;;;;0.00;0.00;;;18.70;99.90;;;;;;5055860;28;20051;-78
2022/05/18 06:33:50;;;;;;;0.98;0.30;;;18.80;99.90;;;;;;5038850;28;20477;-78
2022/05/18 06:36:16;;;;;;;0.00;0.00;;;18.90;99.90;;;;;;5055461;28;20052;-77
2022/05/18 06:38:41;;;;;;;0.00;0.00;;;19.00;99.90;;;;;;5038800;28;20439;-78
2022/05/18 06:41:22;;;;;;;0.43;0.25;;;19.10;99.90;;;;;;5055350;28;20094;-78
2022/05/18 06:43:57;;;;;;;0.17;0.17;;;19.20;99.90;;;;;;5038577;28;20049;-78
2022/05/18 06:46:23;;;;;;;;;;;19.30;99.90;;;;;;5039271;28;20045;-78
2022/05/18 06:48:49;;;;;;;0.00;0.00;;;19.40;99.90;;;;;;5038038;28;20376;-78
2022/05/18 06:51:21;;;;;;;0.00;0.00;;;19.60;99.90;;;;;;5055039;28;20060;-77
2022/05/18 06:53:49;;;;;;;1.55;0.00;;;19.70;99.90;;;;;;5055851;28;20061;-77
2022/05/18 06:56:15;;;;;;;0.00;0.00;;;19.80;99.90;;;;;;5038467;28;20063;-78
2022/05/18 06:58:41;;;;;;;0.10;0.08;;;19.90;99.90;;;;;;5038430;28;20124;-78
2022/05/18 07:01:07;;;;;;;0.57;0.35;;;20.00;99.90;;;;;;5038596;28;20481;-78
2022/05/18 07:03:33;;;;;;;0.20;0.20;;;20.20;99.90;;;;;;5054278;28;20057;-78
2022/05/18 07:06:02;;;;;;;0.00;0.00;;;20.30;99.90;;;;;;5038092;28;20481;-78
2022/05/18 07:08:28;;;;;;;0.00;0.00;;;20.50;99.90;;;;;;5054678;28;20041;-78
2022/05/18 07:10:54;;;;;;;0.00;0.00;;;20.60;99.90;;;;;;5054881;28;20052;-78
2022/05/18 07:13:19;;;;;;;0.00;0.00;;;20.80;99.90;;;;;;5038088;28;20041;-78
2022/05/18 07:15:45;;;;;;;0.00;0.00;;;20.90;99.90;;;;;;5038101;28;20094;-78
2022/05/18 07:18:11;;;;;;;0.00;0.00;;;21.00;99.90;;;;;;5037905;28;20408;-78
2022/05/18 07:20:37;;;;;;;0.10;0.10;;;21.20;99.90;;;;;;5054323;28;20041;-78
2022/05/18 07:23:03;;;;;;;1.00;0.08;;;21.30;99.90;;;;;;5038138;28;20049;-78
2022/05/18 07:25:29;;;;;;;0.00;0.00;;;21.60;99.90;;;;;;5054707;28;20136;-78
2022/05/18 07:27:54;;;;;;;0.10;0.00;;;21.70;99.90;;;;;;5054478;28;20041;-78
2022/05/18 07:30:20;;;;;;;0.00;0.00;;;22.00;99.90;;;;;;5037821;28;20057;-78
2022/05/18 07:32:46;;;;;;;0.10;0.10;;;22.30;99.90;;;;;;5038113;28;20063;-78
2022/05/18 07:35:11;;;;;;;0.20;0.10;;;22.40;99.90;;;;;;5037865;28;20378;-79
2022/05/18 07:37:37;;;;;;;0.00;0.00;;;22.60;99.90;;;;;;5054009;28;20481;-78
2022/05/18 07:40:05;;;;;;;0.22;0.15;;;22.70;99.90;;;;;;5054336;28;20479;-78
2022/05/18 07:42:31;;;;;;;0.00;0.00;;;22.80;99.90;;;;;;5037777;28;20060;-78
2022/05/18 07:44:56;;;;;;;0.00;0.00;;;22.90;99.90;;;;;;5054384;28;20443;-78
2022/05/18 07:47:32;;;;;;;0.80;0.30;;;23.00;99.90;;;;;;5054133;28;20052;-78
2022/05/18 07:49:58;;;;;;;0.00;0.00;;;23.20;99.90;;;;;;5054353;28;20053;-78
2022/05/18 07:52:24;;;;;;;0.03;0.03;;;23.20;99.90;;;;;;5053932;28;20389;-78
2022/05/18 07:54:50;;;;;;;0.00;0.00;;;23.30;99.90;;;;;;5053994;28;20432;-78
2022/05/18 07:57:17;;;;;;;0.00;0.00;;;23.50;99.90;;;;;;5037932;28;20041;-78
2022/05/18 07:59:43;;;;;;;0.30;0.00;;;23.60;99.90;;;;;;5037500;28;20060;-78
2022/05/18 08:02:08;;;;;;;0.00;0.00;;;23.60;99.90;;;;;;5037099;28;20061;-78
2022/05/18 08:04:34;;;;;;;0.00;0.00;;;23.70;99.30;;;;;;5054130;28;20481;-78
2022/05/18 08:07:00;;;;;;;1.02;0.70;;;23.70;99.90;;;;;;5053717;28;20136;-78
2022/05/18 08:09:25;;;;;;;0.00;0.00;;;23.80;98.90;;;;;;5053377;28;20088;-77
2022/05/18 08:17:21;;;;;;;0.00;0.00;;;23.90;98.40;;;;;;5054186;28;20056;-77
2022/05/18 08:19:47;;;;;;;0.10;0.10;;;24.00;98.00;;;;;;5036802;28;20061;-77
2022/05/18 08:22:14;;;;;;;0.20;0.20;;;24.10;97.80;;;;;;5053447;28;20059;-78
2022/05/18 08:24:40;;;;;;;2.47;0.28;;;24.10;97.50;;;;;;5036692;28;20468;-77
2022/05/18 08:27:12;;;;;;;0.28;0.28;;;24.30;97.30;;;;;;5036739;28;20048;-78
2022/05/18 08:29:38;;;;;;;0.10;0.05;;;24.30;98.00;;;;;;5053565;28;20504;-77
2022/05/18 08:32:04;;;;;;;1.95;0.45;;;24.40;97.90;;;;;;5053057;28;20091;-77
2022/05/18 08:34:30;;;;;;;0.00;0.00;;;24.60;96.80;;;;;;5053279;28;20088;-77
2022/05/18 08:36:56;;;;;;;0.00;0.00;;;24.80;97.00;;;;;;5053212;28;20088;-77
2022/05/18 08:39:22;;;;;;;0.00;0.00;;;24.80;96.40;;;;;;5053246;28;20044;-77
2022/05/18 08:41:49;;;;;;;2.85;0.75;;;24.90;96.00;;;;;;5036336;28;20052;-77
2022/05/18 08:44:36;;;;;;;0.00;0.00;;;25.00;96.30;;;;;;5053031;28;20060;-77
2022/05/18 08:47:34;;;;;;;0.20;0.10;;;25.10;96.00;;;;;;5036834;28;20493;-77
2022/05/18 08:50:04;;;;;;;0.00;0.00;;;25.30;96.60;;;;;;5052395;28;20489;-77
2022/05/18 08:52:51;;;;;;;0.05;0.00;;;25.40;94.90;;;;;;5052927;28;20083;-77
2022/05/18 08:55:41;;;;;;;0.10;0.03;;;25.50;95.50;;;;;;5052818;28;20056;-77
2022/05/18 08:58:29;;;;;;;0.08;0.00;;;25.50;95.10;;;;;;5053087;28;20099;-77
2022/05/18 09:01:02;;;;;;;0.00;0.00;;;25.70;95.20;;;;;;5036167;28;20045;-77
2022/05/18 09:03:40;;;;;;;0.00;0.00;;;25.70;94.20;;;;;;5036084;28;20049;-77
2022/05/18 09:06:30;;;;;;;0.10;0.10;;;25.80;93.80;;;;;;5053048;28;20049;-77
2022/05/18 09:11:56;;;;;;;0.00;0.00;;;26.00;94.20;;;;;;5053173;28;20053;-77
2022/05/18 09:14:26;;;;;;;0.00;0.00;;;26.10;94.90;;;;;;5036043;28;20052;-77
2022/05/18 09:17:16;;;;;;;0.05;0.00;;;26.20;93.20;;;;;;5036216;28;20056;-78
2022/05/18 09:19:49;;;;;;;0.20;0.10;;;26.20;92.80;;;;;;5053297;28;20045;-77
2022/05/18 09:22:26;;;;;;;0.00;0.00;;;26.30;92.70;;;;;;5036098;28;20053;-77
2022/05/18 09:25:20;;;;;;;0.00;0.00;;;26.40;92.40;;;;;;5036105;28;20095;-78
2022/05/18 09:28:05;;;;;;;0.00;0.00;;;26.60;93.60;;;;;;4997688;28;20125;-78
2022/05/18 09:30:33;;;;;;;;;;;26.70;91.80;;;;;;4983853;28;20092;-78
2022/05/18 09:33:08;;;;;;;1.30;0.45;;;26.70;92.70;;;;;;4983375;28;20359;-78
2022/05/18 09:36:24;;;;;;;0.00;0.00;;;26.90;93.10;;;;;;4999605;28;20089;-78
2022/05/18 09:39:04;;;;;;;0.00;0.00;;;26.90;91.90;;;;;;4982865;28;20058;-78
2022/05/18 09:41:43;;;;;;;0.45;0.13;;;27.00;91.90;;;;;;4999581;28;20137;-78
2022/05/18 09:44:20;;;;;;;0.00;0.00;;;27.20;92.80;;;;;;4983383;28;20077;-78
2022/05/18 09:46:48;;;;;;;1.08;0.30;;;27.30;91.00;;;;;;5000257;28;20107;-78
2022/05/18 09:49:14;;;;;;;0.10;0.03;;;27.50;89.70;;;;;;4999269;28;20058;-78
2022/05/18 09:51:40;;;;;;;0.08;0.00;;;27.60;90.20;;;;;;4999249;28;20573;-78
2022/05/18 09:54:06;;;;;;;0.20;0.13;;;27.60;90.10;;;;;;4999283;28;20049;-78
2022/05/18 09:56:44;;;;;;;0.08;0.03;;;27.70;91.30;;;;;;4999342;28;20139;-78
2022/05/18 09:59:16;;;;;;;0.00;0.00;;;27.80;89.90;;;;;;4983103;28;20177;-78
2022/05/18 10:07:29;;;;;;;0.00;0.00;;;28.00;87.80;;;;;;5055872;28;20477;-78
2022/05/18 10:10:13;;;;;;;0.25;0.08;;;28.10;86.50;;;;;;5056282;28;20052;-78
2022/05/18 10:12:43;;;;;;;0.00;0.00;;;28.30;88.30;;;;;;5055927;28;20103;-78
2022/05/18 10:15:41;;;;;;;0.52;0.15;;;28.40;84.60;;;;;;5055964;28;20049;-78
2022/05/18 10:18:25;;;;;;;0.00;0.00;;;28.40;82.60;;;;;;4998859;28;20486;-78
2022/05/18 10:21:02;;;;;;;0.00;0.00;;;28.50;83.70;;;;;;4982683;28;20401;-78
2022/05/18 10:23:41;;;;;;;0.00;0.00;;;28.60;81.70;;;;;;4998949;28;20060;-78
2022/05/18 10:26:20;;;;;;;0.10;0.00;;;28.60;83.30;;;;;;4998859;28;20045;-78
2022/05/18 10:29:00;;;;;;;0.43;0.00;;;28.50;82.50;;;;;;4998389;28;20528;-78
2022/05/18 10:31:40;;;;;;;0.32;0.00;;;28.60;83.90;;;;;;4998670;28;20045;-78
2022/05/18 10:34:24;;;;;;;0.00;0.00;;;28.70;84.10;;;;;;4982566;28;20057;-78
2022/05/18 10:36:53;;;;;;;0.20;0.00;;;28.60;83.30;;;;;;4998622;28;20050;-77
2022/05/18 10:39:39;;;;;;;0.20;0.20;;;28.50;83.00;;;;;;4998296;28;20056;-78
2022/05/18 10:42:20;;;;;;;0.10;0.10;;;28.40;83.60;;;;;;4981741;28;20057;-78
2022/05/18 10:44:47;;;;;;;0.00;0.00;;;28.60;83.30;;;;;;4998051;28;20104;-78
2022/05/18 10:47:29;;;;;;;0.13;0.13;;;28.70;84.10;;;;;;4982003;28;20053;-78
2022/05/18 10:50:23;;;;;;;0.22;0.15;;;28.60;82.20;;;;;;4998054;28;20062;-78
2022/05/18 10:52:51;;;;;;;5.07;0.20;;;28.40;81.70;;;;;;4981637;28;20045;-79
2022/05/18 10:55:22;;;;;;;0.45;0.00;;;28.50;81.20;;;;;;5029090;28;20056;-79
2022/05/18 10:58:05;;;;;;;0.00;0.00;;;28.70;83.10;;;;;;5055300;28;20060;-80
2022/05/18 11:00:50;;;;;;;0.00;0.00;;;28.70;79.60;;;;;;5054975;28;20090;-78
2022/05/18 11:03:22;;;;;;;0.50;0.22;;;29.00;81.70;;;;;;5054978;28;20099;-78
2022/05/18 11:05:55;;;;;;;0.43;0.10;;;29.10;80.40;;;;;;5038697;28;20049;-78
2022/05/18 11:08:28;;;;;;;0.65;0.40;;;29.20;80.30;;;;;;5054934;28;20507;-78
2022/05/18 11:11:00;;;;;;;0.00;0.00;;;29.30;80.40;;;;;;5055013;28;20136;-79
2022/05/18 11:13:54;;;;;;;0.00;0.00;;;29.40;79.30;;;;;;5039034;28;20473;-78
2022/05/18 11:16:23;;;;;;;0.38;0.20;;;29.60;79.70;;;;;;5038439;28;20057;-78
2022/05/18 11:18:55;;;;;;;0.10;0.10;;;29.80;78.60;;;;;;5055334;28;20056;-80
2022/05/18 11:21:43;;;;;;;0.45;0.32;;;29.80;77.20;;;;;;5038314;28;20473;-78
2022/05/18 11:24:33;;;;;;;0.00;0.00;;;29.80;76.90;;;;;;5054876;28;20443;-78
2022/05/18 11:27:27;;;;;;;0.10;0.10;;;29.70;75.80;;;;;;5038264;28;20056;-79
2022/05/18 11:30:05;;;;;;;0.82;0.32;;;29.70;76.60;;;;;;5038208;28;20041;-79
2022/05/18 11:32:38;;;;;;;0.30;0.10;;;29.70;76.10;;;;;;5054448;28;20045;-80
2022/05/18 11:35:11;;;;;;;0.00;0.00;;;29.70;77.80;;;;;;5054420;28;20481;-80
2022/05/18 11:37:50;;;;;;;0.00;0.00;;;29.80;74.70;;;;;;5054610;28;20309;-79
2022/05/18 11:40:34;;;;;;;0.10;0.10;;;30.00;76.70;;;;;;5054156;28;20492;-79
2022/05/18 11:43:29;;;;;;;0.00;0.00;;;30.10;74.10;;;;;;5054466;28;20052;-79
2022/05/18 11:46:20;;;;;;;0.10;0.10;;;30.20;73.70;;;;;;5037085;28;20065;-78
2022/05/18 11:49:27;;;;;;;0.20;0.17;;;30.30;75.20;;;;;;5052404;28;20377;-78
2022/05/18 11:52:15;;;;;;;0.00;0.00;;;30.40;73.30;;;;;;5053758;28;20366;-80
2022/05/18 11:55:10;;;;;;;0.98;0.00;;;30.40;73.40;;;;;;5054608;28;20049;-81
2022/05/18 11:58:11;;;;;;;0.00;0.00;;;30.50;75.50;;;;;;5037311;28;20151;-80
2022/05/18 12:00:52;;;;;;;0.00;0.00;;;30.50;73.50;;;;;;4996585;28;20058;-79
2022/05/18 12:03:54;;;;;;;0.10;0.10;;;30.60;74.10;;;;;;4980986;28;20136;-79
2022/05/18 12:06:23;;;;;;;0.35;0.10;;;30.60;75.00;;;;;;4996877;28;20046;-80
2022/05/18 12:09:10;;;;;;;0.00;0.00;;;30.80;72.80;;;;;;4996639;28;20038;-80
2022/05/18 12:12:05;;;;;;;0.20;0.10;;;30.90;72.70;;;;;;4996546;28;20057;-81
2022/05/18 12:14:43;;;;;;;0.00;0.00;;;30.90;69.50;;;;;;4977424;28;20061;-80
2022/05/18 12:17:46;;;;;;;0.00;0.00;;;30.80;71.30;;;;;;4996067;28;20053;-80
2022/05/18 12:20:19;;;;;;;0.40;0.08;;;30.80;71.50;;;;;;4980588;28;20143;-80
2022/05/18 12:22:49;;;;;;;0.20;0.10;;;30.90;72.50;;;;;;5001300;28;20053;-79
2022/05/18 12:25:20;;;;;;;0.22;0.22;;;30.90;68.80;;;;;;5016071;28;20551;-79
2022/05/18 12:27:47;;;;;;;0.00;0.00;;;30.80;71.10;;;;;;5016431;28;20180;-79
2022/05/18 12:30:16;;;;;;;1.35;0.20;;;31.00;72.20;;;;;;5016040;28;20058;-79
2022/05/18 12:32:43;;;;;;;0.00;0.00;;;31.00;68.80;;;;;;5015984;28;20041;-79
2022/05/18 12:35:20;;;;;;;0.00;0.00;;;30.70;69.30;;;;;;4999459;28;20506;-79
2022/05/18 12:37:58;;;;;;;0.00;0.00;;;30.40;69.60;;;;;;5029202;28;20048;-80
2022/05/18 12:40:50;;;;;;;0.00;0.00;;;30.30;67.10;;;;;;5053278;28;20037;-79
2022/05/18 12:43:24;;;;;;;0.00;0.00;;;30.30;69.10;;;;;;5053310;28;20060;-80
2022/05/18 12:46:08;;;;;;;0.00;0.00;;;30.40;71.60;;;;;;5053344;28;20095;-79
2022/05/18 12:48:36;;;;;;;0.00;0.00;;;30.50;72.40;;;;;;5052507;28;20049;-79
2022/05/18 12:51:11;;;;;;;0.65;0.30;;;30.70;70.10;;;;;;5053409;28;20053;-79
2022/05/18 12:54:05;;;;;;;0.30;0.25;;;30.90;71.80;;;;;;5052936;28;20584;-79
2022/05/18 12:56:36;;;;;;;0.70;0.25;;;30.90;72.00;;;;;;5036662;28;20052;-79
2022/05/18 12:59:11;;;;;;;0.20;0.20;;;30.90;71.20;;;;;;5036391;28;20072;-80
2022/05/18 13:01:46;;;;;;;0.20;0.20;;;30.50;69.00;;;;;;5036030;28;20519;-80
2022/05/18 13:04:15;;;;;;;0.20;0.10;;;30.40;69.80;;;;;;5052981;28;20088;-80
2022/05/18 13:06:56;;;;;;;0.50;0.30;;;30.30;68.30;;;;;;5036569;28;20052;-80
2022/05/18 13:09:22;;;;;;;0.00;0.00;;;30.00;67.80;;;;;;5035977;28;20037;-80
2022/05/18 13:12:11;;;;;;;0.10;0.10;;;29.90;69.70;;;;;;5035468;28;20060;-80
2022/05/18 13:14:59;;;;;;;0.20;0.00;;;29.70;70.40;;;;;;5052821;28;20041;-80
2022/05/18 13:17:48;;;;;;;0.20;0.15;;;29.50;71.50;;;;;;5052627;28;20488;-80
2022/05/18 13:20:30;;;;;;;0.17;0.15;;;29.30;71.30;;;;;;5035848;28;20045;-81
2022/05/18 13:23:05;;;;;;;0.35;0.00;;;29.10;72.50;;;;;;5035819;28;20107;-80
2022/05/18 13:25:36;;;;;;;0.20;0.15;;;29.00;73.10;;;;;;5036212;28;20049;-81
2022/05/18 13:28:06;;;;;;;0.00;0.00;;;29.00;71.80;;;;;;5053142;28;20392;-80